Grand Rapids, MI

6:38 AM EST on February 20, 2017 (GMT -0500)
West Grand | | Change Station
Active Advisory: Small Craft Advisory

Elev 650 ft 42.98 °N, 85.69 °W | Updated 8 minutes ago

Mostly Cloudy
Mostly Cloudy
33.3 °F
Feels Like 33 °F
N
0.0
Wind Variable Wind from West

Today
High -- | Low -- °F
--% Chance of Precip.
Yesterday
High -- | Low -- °F
Precip. -- in
Pressure 30.21 in
Visibility 10.0 miles
Clouds Overcast 25000 ft
Windchill 33 °F
Dew Point 31 °F
Humidity 90%
Rainfall 0.00 in
Snow Depth Not available.
7:32 AM 6:20 PM
Waning Crescent, 35% visible
METAR KGRR 201053Z 08006KT 10SM OVC250 02/M02 A3019 RMK AO2 SLP229 T00171017
Pressure 30.21 in
Visibility 10.0 miles
Clouds Overcast 25000 ft
Windchill 33 °F
Dew Point 31 °F
Humidity 90%
Rainfall 0.00 in
Snow Depth Not available.
7:32 AM 6:20 PM
Waning Crescent, 35% visible
METAR KGRR 201053Z 08006KT 10SM OVC250 02/M02 A3019 RMK AO2 SLP229 T00171017

Get Your Daily Forecast Email!

Thanks for signing up!

Be on the lookout for a verification email in your inbox.

You'll start receiving the daily forecast at 8 AM.

×

10-Day Weather Forecast

Almanac

Astronomy

Feb. 20, 2017 Rise Set
Actual Time
Civil Twilight
Nautical Twilight
Astronomical Twilight
Moon
Length of Visible Light
Length of Day
Tomorrow will be .
, % of the Moon is Illuminated

Today's Extremes

State Highs State Lows

Community

WunderPhotos

Upload Photos

1,962,540 photos uploaded!

WunderBlog® & News

Nearby

Air Quality

  Air Quality AQ Index Pollutant
Not available.

Snow Depth

Station Depth Elevation

Earthquake Activity

City Distance Mag. Time & Date
Minimum magnitude displayed is 2.5.

Coastal Water Temperatures

Place Temperature

Stations

Nearby Weather Stations

Station Location Temp. Windchill Dew Point Humidity Wind Precip. Elev Updated Type
                   

Watches & Warnings

Small Craft Advisory
Issued: 3:42 AM EST Feb. 20, 2017 – National Weather Service

... Small Craft Advisory in effect from 1 PM this afternoon to
11 am EST Tuesday...

The National Weather Service in Grand Rapids has issued a Small
Craft Advisory... which is in effect from 1 PM this afternoon to
11 am EST Tuesday.

* Winds... southeast increasing to 15 to 25 knots later this
afternoon, then shifting to southwest tonight and diminishing
late.

* Waves... building to 3 to 6 feet tonight, then subsiding on
Tuesday.

Precautionary/preparedness actions...

A Small Craft Advisory means that winds or waves are expected to
produce hazardous conditions to small craft. Inexperienced
mariners... especially those operating smaller vessels should
avoid navigating in these conditions.